Time;durP1;ratioP1;P1;durP2;ratioP2;P2;SDS_P1;SDS_P2;PMS_P1;PMS_P2;Temp;Humidity;BMP_temperature;BMP_pressure;BME280_temperature;BME280_humidity;BME280_pressure;Samples;Min_cycle;Max_cycle;Signal;HPM_P1;HPM_P2
2022/08/04 00:02:41;;;;;;;2.72;0.80;;;23.60;67.20;;;;;;4901239;29;20053;-76
2022/08/04 00:05:13;;;;;;;1.52;0.85;;;23.60;67.20;;;;;;4900046;29;20029;-75
2022/08/04 00:07:48;;;;;;;1.55;0.82;;;23.70;67.40;;;;;;4901272;29;20039;-75
2022/08/04 00:10:26;;;;;;;;;;;;;;;;;;;;;
2022/08/04 00:12:54;;;;;;;1.92;0.90;;;23.50;67.80;;;;;;4939314;29;20031;-75
2022/08/04 00:15:22;;;;;;;2.50;1.00;;;23.60;67.70;;;;;;4915983;29;20493;-75
2022/08/04 00:17:53;;;;;;;2.78;0.75;;;23.50;67.60;;;;;;4901148;29;20400;-75
2022/08/04 00:20:20;;;;;;;1.40;0.80;;;23.50;67.60;;;;;;4915646;29;20024;-75
2022/08/04 00:22:47;;;;;;;1.48;0.90;;;23.50;67.80;;;;;;4900871;29;20076;-75
2022/08/04 00:25:13;;;;;;;3.72;1.10;;;23.50;67.80;;;;;;4901077;29;20021;-75
2022/08/04 00:27:39;;;;;;;2.58;1.10;;;23.50;67.80;;;;;;4915757;29;20029;-76
2022/08/04 00:30:06;;;;;;;1.83;0.80;;;23.50;67.90;;;;;;4915130;29;20037;-75
2022/08/04 00:32:32;;;;;;;2.72;1.10;;;23.40;68.00;;;;;;4915372;29;20033;-75
2022/08/04 00:34:58;;;;;;;1.65;0.65;;;23.40;68.20;;;;;;4900175;29;20063;-75
2022/08/04 00:37:25;;;;;;;2.97;1.30;;;23.40;68.30;;;;;;4900900;29;20039;-75
2022/08/04 00:39:53;;;;;;;3.45;1.33;;;23.40;68.20;;;;;;4900591;29;20061;-75
2022/08/04 00:42:33;;;;;;;1.88;1.02;;;23.40;68.20;;;;;;4900901;29;20449;-76
2022/08/04 00:45:34;;;;;;;3.35;0.88;;;23.40;68.00;;;;;;4900319;29;20035;-75
2022/08/04 00:48:27;;;;;;;2.38;0.90;;;23.30;68.20;;;;;;4900562;29;20029;-75
2022/08/04 00:51:33;;;;;;;1.60;0.70;;;23.30;68.40;;;;;;4900690;29;20032;-75
2022/08/04 00:54:08;;;;;;;1.42;0.80;;;23.30;68.30;;;;;;4906969;29;20090;-76
2022/08/04 00:57:01;;;;;;;2.08;0.70;;;23.30;68.50;;;;;;4900416;29;20029;-75
2022/08/04 00:59:51;;;;;;;1.40;0.60;;;23.20;68.90;;;;;;4899324;29;20036;-75
2022/08/04 01:02:37;;;;;;;3.47;1.17;;;23.20;69.10;;;;;;4899383;29;20493;-75
2022/08/04 01:05:10;;;;;;;1.77;0.70;;;23.20;69.40;;;;;;4900257;29;20044;-75
2022/08/04 01:08:04;;;;;;;2.60;0.93;;;23.20;69.30;;;;;;4900509;29;20021;-75
2022/08/04 01:11:00;;;;;;;1.67;0.95;;;23.20;69.60;;;;;;4900538;29;20036;-75
2022/08/04 01:13:45;;;;;;;2.45;0.80;;;23.20;69.70;;;;;;4899898;29;20036;-75
2022/08/04 01:16:16;;;;;;;2.80;1.10;;;23.20;69.80;;;;;;4900334;29;20029;-75
2022/08/04 01:18:59;;;;;;;1.58;0.77;;;23.10;69.80;;;;;;4900305;29;20037;-75
2022/08/04 01:21:56;;;;;;;1.65;0.77;;;23.10;69.70;;;;;;4900274;29;20043;-75
2022/08/04 01:24:46;;;;;;;1.38;0.52;;;23.00;70.00;;;;;;4920631;29;20034;-75
2022/08/04 01:27:49;;;;;;;0.90;0.43;;;23.00;70.30;;;;;;4900346;29;20629;-75
2022/08/04 01:30:16;;;;;;;1.35;0.82;;;23.00;69.70;;;;;;4899854;29;20053;-75
2022/08/04 01:32:55;;;;;;;1.42;0.63;;;23.10;69.60;;;;;;4899979;29;20029;-75
2022/08/04 01:35:55;;;;;;;1.90;0.57;;;23.00;70.00;;;;;;4900532;29;20024;-75
2022/08/04 01:38:39;;;;;;;2.42;0.80;;;23.00;70.10;;;;;;4900280;29;20032;-76
2022/08/04 01:41:14;;;;;;;1.45;0.57;;;23.00;70.10;;;;;;4900012;29;20508;-75
2022/08/04 01:43:42;;;;;;;1.63;0.50;;;22.90;70.40;;;;;;4900268;29;20032;-76
2022/08/04 01:46:12;;;;;;;0.95;0.47;;;23.00;70.20;;;;;;4899349;29;20535;-76
2022/08/04 01:48:39;;;;;;;0.57;0.30;;;22.90;70.30;;;;;;4898778;29;20033;-76
2022/08/04 01:51:07;;;;;;;1.27;0.60;;;22.90;70.70;;;;;;4910610;29;20089;-75
2022/08/04 01:53:38;;;;;;;0.68;0.30;;;22.90;70.30;;;;;;4900109;29;20386;-76
2022/08/04 01:56:05;;;;;;;0.50;0.30;;;23.00;70.00;;;;;;4900503;29;20028;-75
2022/08/04 01:58:37;;;;;;;1.08;0.38;;;22.90;70.00;;;;;;4917026;29;20035;-75
2022/08/04 02:01:04;;;;;;;1.00;0.40;;;22.90;70.00;;;;;;4917950;29;20039;-75
2022/08/04 02:03:31;;;;;;;0.70;0.30;;;22.80;70.20;;;;;;4903096;29;20092;-75
2022/08/04 02:06:15;;;;;;;1.10;0.60;;;22.80;70.20;;;;;;4903140;29;20033;-75
2022/08/04 02:08:59;;;;;;;0.60;0.30;;;22.80;70.20;;;;;;4903901;29;20095;-75
2022/08/04 02:11:25;;;;;;;0.95;0.35;;;22.70;70.30;;;;;;4903823;29;20484;-75
2022/08/04 02:14:39;;;;;;;1.20;0.47;;;22.80;70.60;;;;;;4903416;29;20096;-75
2022/08/04 02:17:09;;;;;;;0.60;0.20;;;22.80;70.30;;;;;;4903247;29;20044;-75
2022/08/04 02:19:41;;;;;;;0.90;0.30;;;22.80;70.20;;;;;;4903210;29;20032;-76
2022/08/04 02:22:09;;;;;;;3.03;0.38;;;22.70;70.50;;;;;;4917937;29;20039;-75
2022/08/04 02:24:44;;;;;;;0.38;0.20;;;22.70;70.50;;;;;;4902505;29;20111;-75
2022/08/04 02:27:12;;;;;;;0.75;0.22;;;22.60;70.50;;;;;;4903320;29;20553;-75
2022/08/04 02:29:57;;;;;;;0.45;0.17;;;22.70;70.40;;;;;;4903163;29;20085;-75
2022/08/04 02:32:38;;;;;;;0.43;0.10;;;22.70;70.40;;;;;;4902785;29;20108;-75
2022/08/04 02:35:04;;;;;;;0.88;0.50;;;22.70;70.20;;;;;;4903084;29;20035;-75
2022/08/04 02:37:31;;;;;;;0.60;0.30;;;22.70;70.40;;;;;;4902858;29;20033;-76
2022/08/04 02:40:00;;;;;;;0.60;0.30;;;22.70;70.50;;;;;;4903007;29;20508;-75
2022/08/04 02:42:28;;;;;;;0.82;0.30;;;22.70;70.70;;;;;;4902333;29;20047;-75
2022/08/04 02:44:57;;;;;;;1.52;0.57;;;22.70;70.90;;;;;;4902626;29;20020;-75
2022/08/04 02:47:25;;;;;;;3.92;0.90;;;22.40;71.60;;;;;;4917355;29;20092;-75
2022/08/04 02:49:56;;;;;;;2.47;1.08;;;22.50;71.40;;;;;;4902920;29;20031;-74
2022/08/04 02:52:23;;;;;;;2.38;1.20;;;22.40;71.50;;;;;;4902581;29;20053;-75
2022/08/04 02:54:53;;;;;;;3.42;1.58;;;22.40;71.70;;;;;;4902797;29;20039;-74
2022/08/04 02:57:26;;;;;;;4.30;2.03;;;22.30;72.30;;;;;;4902660;29;20084;-76
2022/08/04 03:00:14;;;;;;;5.15;1.88;;;22.30;72.10;;;;;;4901877;29;20101;-75
2022/08/04 03:03:00;;;;;;;8.60;2.47;;;22.20;72.40;;;;;;4902184;29;20045;-75
2022/08/04 03:06:11;;;;;;;7.10;3.63;;;22.10;72.60;;;;;;4916805;29;20479;-74
2022/08/04 03:08:55;;;;;;;6.25;2.55;;;22.10;72.60;;;;;;4916784;29;20056;-75
2022/08/04 03:11:36;;;;;;;6.63;2.92;;;22.10;72.60;;;;;;4901482;29;20091;-75
2022/08/04 03:14:17;;;;;;;5.53;3.13;;;22.00;72.40;;;;;;4902535;29;20116;-75
2022/08/04 03:16:51;;;;;;;6.78;3.20;;;22.00;72.50;;;;;;4902319;29;20028;-74
2022/08/04 03:19:52;;;;;;;7.30;3.15;;;22.10;72.30;;;;;;4901659;29;20077;-75
2022/08/04 03:23:00;;;;;;;6.32;2.80;;;22.10;72.00;;;;;;4881113;29;20041;-75
2022/08/04 03:25:52;;;;;;;5.63;2.80;;;22.10;71.60;;;;;;4902154;29;20057;-75
2022/08/04 03:28:32;;;;;;;5.80;2.35;;;22.10;71.60;;;;;;4916484;29;20029;-75
2022/08/04 03:30:57;;;;;;;;;;;22.10;71.40;;;;;;4902286;29;20029;-74
2022/08/04 03:33:54;;;;;;;4.57;2.95;;;22.20;71.30;;;;;;4901842;29;19926;-76
2022/08/04 03:36:31;;;;;;;5.43;2.72;;;22.20;71.20;;;;;;4901623;29;20752;-75
2022/08/04 03:39:19;;;;;;;4.47;2.47;;;22.10;71.00;;;;;;4901907;29;20060;-75
2022/08/04 03:42:02;;;;;;;7.47;3.20;;;22.20;70.80;;;;;;4901529;29;20036;-75
2022/08/04 03:44:59;;;;;;;4.72;2.58;;;22.20;71.00;;;;;;4916331;29;20025;-75
2022/08/04 03:47:44;;;;;;;5.38;3.33;;;22.10;70.90;;;;;;4901591;29;20222;-75
2022/08/04 03:54:15;;;;;;;5.65;2.90;;;22.00;70.90;;;;;;4879215;29;20089;-75
2022/08/04 03:57:02;;;;;;;7.38;2.80;;;22.00;70.60;;;;;;4901309;29;20048;-75
2022/08/04 03:59:40;;;;;;;5.50;2.40;;;22.00;70.50;;;;;;4920425;29;20031;-75
2022/08/04 04:02:33;;;;;;;5.18;3.20;;;22.00;70.50;;;;;;4914874;29;20076;-75
2022/08/04 04:05:15;;;;;;;7.45;2.42;;;22.00;70.30;;;;;;4901326;29;20064;-76
2022/08/04 04:08:10;;;;;;;4.63;2.28;;;22.00;70.00;;;;;;4901439;29;20020;-75
2022/08/04 04:11:06;;;;;;;6.45;2.28;;;22.00;69.80;;;;;;4927602;29;20091;-75
2022/08/04 04:14:13;;;;;;;3.78;2.20;;;21.90;69.50;;;;;;4900778;29;20389;-75
2022/08/04 04:17:05;;;;;;;3.03;2.13;;;21.90;69.40;;;;;;4900243;29;20068;-75
2022/08/04 04:19:43;;;;;;;4.28;1.90;;;21.80;69.60;;;;;;4915315;29;20033;-75
2022/08/04 04:22:33;;;;;;;3.47;1.75;;;21.80;69.10;;;;;;4900885;29;20036;-75
2022/08/04 04:25:28;;;;;;;4.95;1.65;;;21.80;69.30;;;;;;4901152;29;20178;-75
2022/08/04 04:28:16;;;;;;;8.30;2.45;;;21.80;69.10;;;;;;4900058;29;20040;-74
2022/08/04 04:31:19;;;;;;;3.97;1.70;;;21.80;68.90;;;;;;4900407;29;20052;-75
2022/08/04 04:34:09;;;;;;;3.08;1.65;;;21.80;68.70;;;;;;4899397;29;20036;-75
2022/08/04 04:37:12;;;;;;;6.15;1.77;;;21.80;68.90;;;;;;4900622;29;20033;-75
2022/08/04 04:39:47;;;;;;;2.55;1.75;;;21.80;68.50;;;;;;4915619;29;20078;-75
2022/08/04 04:42:19;;;;;;;6.50;2.75;;;21.80;68.70;;;;;;4900860;29;20396;-75
2022/08/04 04:45:04;;;;;;;9.35;2.22;;;21.90;68.50;;;;;;4900522;29;20047;-75
2022/08/04 04:47:52;;;;;;;6.88;2.28;;;21.90;68.60;;;;;;4900168;29;20036;-76
2022/08/04 04:50:35;;;;;;;4.95;1.92;;;21.90;68.40;;;;;;4915373;29;20072;-76
2022/08/04 04:53:12;;;;;;;9.52;2.72;;;21.90;68.40;;;;;;4900818;29;20473;-76
2022/08/04 04:55:59;;;;;;;5.90;2.47;;;21.90;68.30;;;;;;4900420;29;20556;-76
2022/08/04 04:58:30;;;;;;;4.10;2.10;;;22.00;68.30;;;;;;4900048;29;20017;-77
2022/08/04 05:01:14;;;;;;;3.22;1.98;;;21.90;68.30;;;;;;4905784;29;20560;-76
2022/08/04 05:03:43;;;;;;;8.57;2.38;;;21.90;68.40;;;;;;4899339;29;20033;-76
2022/08/04 05:06:47;;;;;;;7.28;2.17;;;21.90;68.10;;;;;;4900307;29;20024;-74
2022/08/04 05:09:27;;;;;;;6.32;1.98;;;21.90;68.40;;;;;;4910599;29;20103;-76
2022/08/04 05:12:16;;;;;;;3.90;1.85;;;21.80;68.30;;;;;;4919637;29;20128;-75
2022/08/04 05:14:48;;;;;;;6.85;2.15;;;21.80;68.50;;;;;;4914223;29;20122;-76
2022/08/04 05:17:25;;;;;;;5.53;1.90;;;21.90;68.20;;;;;;4918176;29;20036;-76
2022/08/04 05:19:59;;;;;;;4.20;1.73;;;21.90;68.40;;;;;;4902209;29;20112;-74
2022/08/04 05:22:37;;;;;;;7.80;2.15;;;21.90;68.40;;;;;;4915154;29;20037;-76
2022/08/04 05:25:24;;;;;;;5.15;2.22;;;21.90;68.20;;;;;;4915717;29;20068;-76
2022/08/04 05:27:59;;;;;;;6.07;1.95;;;21.90;68.50;;;;;;4898819;29;20076;-76
2022/08/04 05:30:27;;;;;;;7.28;2.20;;;21.90;68.30;;;;;;4898900;29;20052;-78
2022/08/04 05:32:59;;;;;;;8.35;1.75;;;21.90;68.50;;;;;;4916921;29;20044;-77
2022/08/04 05:35:32;;;;;;;5.05;2.05;;;21.90;68.40;;;;;;4903929;29;20032;-77
2022/08/04 05:38:00;;;;;;;8.27;2.53;;;22.00;68.50;;;;;;4903866;29;20576;-76
2022/08/04 05:40:26;;;;;;;5.72;1.80;;;21.90;68.70;;;;;;4907781;29;20084;-76
2022/08/04 05:42:54;;;;;;;5.25;1.83;;;21.90;68.60;;;;;;4920515;29;20107;-76
2022/08/04 05:45:22;;;;;;;11.13;2.17;;;22.00;68.30;;;;;;4903923;29;20040;-76
2022/08/04 05:47:48;;;;;;;5.80;1.92;;;22.00;68.50;;;;;;4903673;29;20027;-76
2022/08/04 05:50:15;;;;;;;6.03;2.10;;;22.00;68.60;;;;;;4903668;29;20033;-77
2022/08/04 05:52:41;;;;;;;5.32;1.88;;;22.00;68.70;;;;;;4903856;29;20747;-76
2022/08/04 05:55:11;;;;;;;4.55;1.95;;;21.90;68.70;;;;;;4913087;29;20032;-77
2022/08/04 05:57:42;;;;;;;3.80;1.85;;;21.90;68.80;;;;;;4920888;29;20111;-76
2022/08/04 06:00:08;;;;;;;4.63;1.92;;;21.90;68.40;;;;;;4919565;29;20039;-76
2022/08/04 06:02:36;;;;;;;5.88;2.10;;;21.80;68.90;;;;;;4921444;29;20043;-76
2022/08/04 06:05:06;;;;;;;8.05;2.15;;;21.80;68.90;;;;;;4922005;29;20068;-76
2022/08/04 06:07:32;;;;;;;6.07;1.90;;;21.80;69.00;;;;;;4921870;29;20028;-76
2022/08/04 06:09:59;;;;;;;5.93;2.20;;;21.80;69.00;;;;;;4917275;29;20051;-75
2022/08/04 06:12:36;;;;;;;7.75;1.95;;;21.80;68.80;;;;;;4917827;29;20088;-76
2022/08/04 06:15:02;;;;;;;9.95;2.10;;;21.80;68.60;;;;;;4919802;29;20040;-76
2022/08/04 06:17:34;;;;;;;5.35;2.40;;;21.80;69.00;;;;;;4921786;29;20021;-76
2022/08/04 06:20:01;;;;;;;6.53;2.22;;;21.80;69.00;;;;;;4916985;29;20040;-76
2022/08/04 06:22:29;;;;;;;7.03;2.13;;;21.90;68.90;;;;;;4918568;29;20024;-76
2022/08/04 06:24:57;;;;;;;5.88;1.88;;;21.80;69.20;;;;;;4928834;29;20028;-76
2022/08/04 06:27:23;;;;;;;5.97;1.83;;;21.90;68.90;;;;;;4902962;29;20020;-76
2022/08/04 06:29:51;;;;;;;5.95;2.10;;;22.00;68.90;;;;;;4903120;29;20025;-76
2022/08/04 06:32:26;;;;;;;8.52;2.38;;;22.00;68.60;;;;;;4902403;29;20043;-76
2022/08/04 06:34:57;;;;;;;6.65;2.00;;;22.00;68.50;;;;;;4909429;29;20400;-76
2022/08/04 06:37:25;;;;;;;4.72;2.20;;;22.10;68.50;;;;;;4921341;29;20087;-76
2022/08/04 06:39:51;;;;;;;5.45;1.77;;;22.10;68.40;;;;;;4928965;29;20032;-76
2022/08/04 06:42:20;;;;;;;4.93;2.13;;;22.20;68.00;;;;;;4902253;29;20040;-76
2022/08/04 06:44:49;;;;;;;3.30;1.70;;;22.30;67.90;;;;;;4902673;29;20392;-76
2022/08/04 06:47:20;;;;;;;4.53;2.30;;;22.40;67.70;;;;;;4917076;29;20032;-76
2022/08/04 06:49:48;;;;;;;7.47;1.88;;;22.50;67.30;;;;;;4902584;29;20292;-76
2022/08/04 06:52:17;;;;;;;6.95;2.00;;;22.60;67.10;;;;;;4902138;29;20036;-76
2022/08/04 06:54:46;;;;;;;6.05;2.00;;;22.60;67.00;;;;;;4902450;29;20512;-76
2022/08/04 06:57:25;;;;;;;8.80;2.30;;;22.70;66.80;;;;;;4902425;29;20033;-76
2022/08/04 06:59:56;;;;;;;5.20;1.90;;;22.70;66.40;;;;;;4902626;29;20048;-76
2022/08/04 07:02:25;;;;;;;7.30;1.75;;;22.70;66.20;;;;;;4909650;29;20052;-76
2022/08/04 07:04:52;;;;;;;5.03;1.73;;;22.80;66.00;;;;;;4907362;29;20467;-76
2022/08/04 07:07:18;;;;;;;7.18;1.58;;;23.00;65.70;;;;;;4902271;29;20029;-76
2022/08/04 07:09:44;;;;;;;3.97;1.77;;;23.10;65.30;;;;;;4913553;29;20030;-76
2022/08/04 07:12:11;;;;;;;5.75;1.83;;;23.20;65.10;;;;;;4928803;29;20032;-76
2022/08/04 07:14:39;;;;;;;2.75;1.60;;;23.10;64.90;;;;;;4919370;29;20097;-76
2022/08/04 07:17:07;;;;;;;6.30;1.70;;;23.00;65.10;;;;;;4921162;29;20032;-76
2022/08/04 07:19:35;;;;;;;5.30;1.80;;;23.20;64.30;;;;;;4913293;29;20032;-77
2022/08/04 07:22:01;;;;;;;6.75;1.50;;;24.70;61.70;;;;;;4901501;29;20103;-77
2022/08/04 07:24:31;;;;;;;7.95;1.75;;;24.70;60.00;;;;;;4901913;29;20040;-77
2022/08/04 07:26:57;;;;;;;;;;;25.60;57.40;;;;;;4902304;29;20404;-77
2022/08/04 07:29:23;;;;;;;5.00;1.92;;;27.90;50.90;;;;;;4901889;29;19911;-77
2022/08/04 07:31:50;;;;;;;6.50;1.40;;;28.40;49.10;;;;;;4901281;29;20020;-77
2022/08/04 07:34:17;;;;;;;7.00;2.20;;;27.80;50.50;;;;;;4916646;29;20090;-77
2022/08/04 07:36:43;;;;;;;7.78;1.58;;;26.50;52.70;;;;;;4917880;29;20120;-77
2022/08/04 07:39:09;;;;;;;7.25;1.92;;;25.80;54.60;;;;;;4920679;29;20060;-77
2022/08/04 07:41:35;;;;;;;4.85;1.58;;;25.30;56.20;;;;;;4920577;29;20035;-76
2022/08/04 07:44:02;;;;;;;5.32;1.55;;;25.00;57.50;;;;;;4913521;29;20029;-77
2022/08/04 07:46:28;;;;;;;8.80;1.85;;;24.80;58.30;;;;;;4901550;29;20035;-76
2022/08/04 07:48:54;;;;;;;4.10;1.63;;;24.60;59.00;;;;;;4915756;29;20025;-77
2022/08/04 07:51:21;;;;;;;5.15;1.70;;;24.30;59.60;;;;;;4901157;29;20036;-76
2022/08/04 07:53:47;;;;;;;8.15;2.15;;;24.30;60.10;;;;;;4915332;29;20066;-76
2022/08/04 07:56:15;;;;;;;5.57;1.80;;;24.20;60.20;;;;;;4920425;29;20031;-76
2022/08/04 07:58:41;;;;;;;5.80;1.63;;;24.20;60.60;;;;;;4924720;29;20040;-76
2022/08/04 08:01:09;;;;;;;4.18;1.70;;;24.20;60.50;;;;;;4901047;29;20086;-76
2022/08/04 08:03:36;;;;;;;5.45;1.50;;;24.30;60.20;;;;;;4900563;29;20059;-76
2022/08/04 08:06:03;;;;;;;8.70;1.77;;;24.20;60.20;;;;;;4914479;29;20024;-76
2022/08/04 08:08:29;;;;;;;5.45;1.75;;;24.30;59.70;;;;;;4915612;29;20037;-77
2022/08/04 08:10:55;;;;;;;7.18;1.80;;;24.20;59.80;;;;;;4931901;29;20028;-76
2022/08/04 08:13:21;;;;;;;4.95;1.63;;;24.30;59.10;;;;;;4948931;29;20556;-76
2022/08/04 08:15:47;;;;;;;8.07;1.92;;;24.40;58.90;;;;;;4918515;29;20118;-76
2022/08/04 08:18:13;;;;;;;4.15;1.70;;;24.50;58.50;;;;;;4917773;29;20031;-76
2022/08/04 08:20:39;;;;;;;3.75;1.75;;;24.60;58.10;;;;;;4914995;29;20025;-77
2022/08/04 08:23:07;;;;;;;5.07;1.52;;;27.30;53.50;;;;;;4900584;29;20088;-77
2022/08/04 08:25:34;;;;;;;3.97;0.98;;;30.20;46.50;;;;;;4900840;29;20567;-77
2022/08/04 08:28:02;;;;;;;3.33;1.13;;;32.00;40.80;;;;;;4899491;29;20039;-77
2022/08/04 08:30:28;;;;;;;4.93;1.00;;;34.00;37.10;;;;;;4916478;29;20020;-77
2022/08/04 08:32:54;;;;;;;3.00;1.08;;;35.00;35.00;;;;;;4919148;29;20492;-77
2022/08/04 08:35:24;;;;;;;3.58;0.98;;;36.00;33.60;;;;;;4916776;29;20036;-78
2022/08/04 08:37:57;;;;;;;4.22;0.70;;;37.00;31.10;;;;;;4919194;29;20028;-78
2022/08/04 08:40:34;;;;;;;3.80;1.08;;;37.60;30.00;;;;;;4904574;29;20036;-78
2022/08/04 08:43:08;;;;;;;3.05;0.82;;;38.00;29.40;;;;;;4900299;29;20111;-78
2022/08/04 08:45:52;;;;;;;4.00;1.23;;;38.30;28.50;;;;;;4900320;29;20033;-78
2022/08/04 08:49:03;;;;;;;3.53;1.25;;;38.40;27.80;;;;;;4900453;29;20033;-78
2022/08/04 08:51:36;;;;;;;5.85;1.27;;;38.60;27.60;;;;;;4893969;29;20048;-78
2022/08/04 08:54:20;;;;;;;3.42;0.90;;;38.60;28.00;;;;;;4919338;29;20512;-78
2022/08/04 08:57:23;;;;;;;2.35;0.82;;;38.70;27.20;;;;;;4901704;29;20041;-78
2022/08/04 09:00:25;;;;;;;2.25;0.95;;;38.80;26.90;;;;;;4914672;29;20029;-78
2022/08/04 09:03:28;;;;;;;3.75;1.05;;;39.00;26.60;;;;;;4899968;29;20508;-78
2022/08/04 09:06:00;;;;;;;6.05;1.00;;;38.90;26.40;;;;;;4900123;29;20040;-78
2022/08/04 09:08:54;;;;;;;4.18;0.85;;;39.20;26.50;;;;;;4900134;29;20075;-78
2022/08/04 09:11:26;;;;;;;4.20;1.20;;;39.00;26.50;;;;;;4937588;29;20482;-78
2022/08/04 09:14:00;;;;;;;3.50;0.88;;;39.30;26.30;;;;;;4909149;29;20111;-78
2022/08/04 09:16:38;;;;;;;2.95;0.90;;;39.30;26.50;;;;;;4914235;29;20036;-78
2022/08/04 09:19:08;;;;;;;4.07;1.02;;;39.40;25.80;;;;;;4900216;29;20036;-78
2022/08/04 09:21:46;;;;;;;4.00;1.20;;;39.60;25.10;;;;;;4899974;29;20029;-78
2022/08/04 09:24:35;;;;;;;3.15;1.00;;;39.60;25.10;;;;;;4899828;29;20037;-78
2022/08/04 09:27:07;;;;;;;2.65;0.93;;;39.80;24.40;;;;;;4896794;29;20041;-78
2022/08/04 09:29:38;;;;;;;4.07;0.80;;;39.90;25.10;;;;;;4900001;29;20032;-78
2022/08/04 09:32:29;;;;;;;3.28;1.00;;;38.50;25.50;;;;;;4914480;29;20073;-78
2022/08/04 09:35:32;;;;;;;4.20;0.95;;;37.70;26.50;;;;;;4913559;29;20433;-78
2022/08/04 09:38:36;;;;;;;3.03;0.82;;;36.70;27.40;;;;;;4900081;29;20097;-77
2022/08/04 09:41:29;;;;;;;4.75;1.10;;;35.40;28.90;;;;;;4899440;29;20035;-77
2022/08/04 09:44:27;;;;;;;3.60;1.00;;;34.70;30.30;;;;;;4899495;29;20099;-77
2022/08/04 09:47:31;;;;;;;5.28;0.98;;;34.30;31.10;;;;;;4878415;29;20032;-77
2022/08/04 09:50:03;;;;;;;2.75;0.80;;;34.10;30.40;;;;;;4899682;29;20057;-77
2022/08/04 09:53:03;;;;;;;1.02;0.60;;;34.20;31.60;;;;;;4914311;29;20092;-78
2022/08/04 09:55:45;;;;;;;3.72;0.68;;;34.70;31.70;;;;;;4887582;29;20139;-78
2022/08/04 09:58:48;;;;;;;2.70;1.02;;;35.10;30.80;;;;;;4914363;29;20037;-77
2022/08/04 10:01:24;;;;;;;3.72;0.75;;;35.60;29.50;;;;;;4899155;29;20049;-77
2022/08/04 10:04:02;;;;;;;3.78;1.63;;;36.70;29.00;;;;;;4899501;29;20392;-78
2022/08/04 10:06:32;;;;;;;5.13;1.08;;;37.40;27.70;;;;;;4913009;29;20028;-77
2022/08/04 10:09:26;;;;;;;4.90;0.90;;;37.90;27.10;;;;;;4900806;29;20021;-77
2022/08/04 10:12:11;;;;;;;3.20;0.90;;;38.30;26.10;;;;;;4928652;29;20028;-78
2022/08/04 10:14:51;;;;;;;2.92;0.70;;;38.10;26.40;;;;;;4904192;29;20023;-77
2022/08/04 10:17:43;;;;;;;1.33;0.60;;;38.30;26.60;;;;;;4919196;29;20051;-77
2022/08/04 10:20:30;;;;;;;3.17;0.77;;;38.60;25.80;;;;;;4903073;29;20037;-77
2022/08/04 10:23:15;;;;;;;2.10;0.73;;;38.90;25.80;;;;;;4903640;29;20608;-78
2022/08/04 10:25:59;;;;;;;6.13;1.02;;;38.90;25.20;;;;;;4903230;29;20645;-77
2022/08/04 10:28:28;;;;;;;3.92;0.63;;;38.70;26.00;;;;;;4903086;29;20036;-77
2022/08/04 10:31:02;;;;;;;2.80;0.57;;;38.40;25.70;;;;;;4902816;29;20029;-77
2022/08/04 10:33:36;;;;;;;2.25;0.73;;;38.20;25.90;;;;;;4902123;29;20028;-77
2022/08/04 10:36:09;;;;;;;2.55;0.57;;;37.90;27.10;;;;;;4902833;29;20044;-77
2022/08/04 10:39:14;;;;;;;2.47;0.60;;;37.50;27.00;;;;;;4902646;29;20036;-77
2022/08/04 10:41:54;;;;;;;1.58;0.47;;;36.90;27.30;;;;;;4907886;29;20036;-77
2022/08/04 10:44:29;;;;;;;4.63;0.60;;;35.90;29.20;;;;;;4906169;29;20392;-76
2022/08/04 10:47:03;;;;;;;3.97;0.75;;;35.20;30.20;;;;;;4917193;29;20029;-77
2022/08/04 10:49:44;;;;;;;2.97;0.73;;;34.70;31.10;;;;;;4917329;29;20025;-77
2022/08/04 10:52:15;;;;;;;2.88;0.70;;;34.00;31.50;;;;;;4934071;29;20036;-77
2022/08/04 10:55:07;;;;;;;1.50;0.50;;;33.40;32.70;;;;;;4911796;29;20045;-76
2022/08/04 10:57:58;;;;;;;1.85;0.65;;;32.90;33.30;;;;;;4914751;29;20076;-77
2022/08/04 11:00:26;;;;;;;2.13;0.55;;;32.80;33.60;;;;;;4916979;29;20060;-76
2022/08/04 11:03:00;;;;;;;2.42;0.57;;;32.60;34.00;;;;;;4902027;29;20049;-76
2022/08/04 11:05:29;;;;;;;1.98;0.65;;;32.30;33.90;;;;;;4916803;29;20095;-76
2022/08/04 11:08:20;;;;;;;1.23;0.45;;;32.20;34.40;;;;;;4902305;29;20020;-76
2022/08/04 11:11:04;;;;;;;1.27;0.68;;;32.10;34.20;;;;;;4924887;29;20028;-76
2022/08/04 11:13:41;;;;;;;2.83;0.73;;;31.70;34.40;;;;;;4920926;29;20028;-76
2022/08/04 11:16:16;;;;;;;4.43;0.65;;;31.70;34.70;;;;;;4920323;29;20040;-76
2022/08/04 11:19:12;;;;;;;1.73;0.60;;;31.70;35.20;;;;;;4902191;29;20029;-76
2022/08/04 11:21:46;;;;;;;2.53;0.50;;;31.60;35.30;;;;;;4907571;29;20087;-77
2022/08/04 11:24:35;;;;;;;3.33;0.80;;;31.70;35.20;;;;;;4919601;29;20035;-78
2022/08/04 11:27:05;;;;;;;1.58;0.50;;;31.40;35.20;;;;;;4935424;29;20028;-76
2022/08/04 11:30:10;;;;;;;4.03;0.90;;;31.20;35.60;;;;;;4901866;29;20048;-76
2022/08/04 11:32:39;;;;;;;1.67;0.77;;;31.30;36.40;;;;;;4861735;29;20033;-76
2022/08/04 11:35:11;;;;;;;1.55;0.50;;;31.40;35.80;;;;;;4889609;29;20405;-76
2022/08/04 11:38:11;;;;;;;3.15;0.73;;;31.50;35.20;;;;;;4901543;29;20044;-76
2022/08/04 11:40:42;;;;;;;2.72;0.65;;;31.10;35.30;;;;;;4901486;29;20476;-76
2022/08/04 11:43:25;;;;;;;3.50;0.60;;;31.10;36.30;;;;;;4901666;29;20056;-76
2022/08/04 11:46:29;;;;;;;3.05;1.30;;;31.10;36.60;;;;;;4901349;29;20036;-76
2022/08/04 11:49:01;;;;;;;3.65;0.82;;;31.40;36.50;;;;;;4901980;29;20025;-76
2022/08/04 11:51:28;;;;;;;1.75;0.65;;;31.70;36.10;;;;;;4912880;29;20032;-76
2022/08/04 11:53:55;;;;;;;2.10;0.98;;;31.60;35.90;;;;;;4915176;29;20092;-76
2022/08/04 11:56:21;;;;;;;5.55;1.00;;;31.40;36.00;;;;;;4901477;29;20040;-76
2022/08/04 11:58:46;;;;;;;2.55;1.00;;;30.90;36.90;;;;;;4901477;29;20028;-75
2022/08/04 12:01:58;;;;;;;3.50;0.90;;;31.00;37.50;;;;;;4900966;29;20052;-75
2022/08/04 12:04:51;;;;;;;1.90;0.63;;;31.30;37.00;;;;;;4890465;29;20513;-76
2022/08/04 12:07:37;;;;;;;2.45;0.63;;;31.80;36.40;;;;;;4901228;29;20037;-76
2022/08/04 12:10:19;;;;;;;3.45;1.33;;;31.70;36.80;;;;;;4928938;29;20027;-75
2022/08/04 12:13:03;;;;;;;2.20;0.75;;;31.20;36.90;;;;;;4925599;29;20036;-75
2022/08/04 12:15:43;;;;;;;2.53;0.70;;;31.20;37.90;;;;;;4912662;29;20076;-76
2022/08/04 12:18:13;;;;;;;4.65;0.85;;;31.10;37.70;;;;;;4915353;29;20037;-76
2022/08/04 12:20:47;;;;;;;5.40;0.95;;;31.40;37.10;;;;;;4913852;29;20028;-76
2022/08/04 12:23:32;;;;;;;6.60;0.85;;;31.30;36.80;;;;;;4919729;29;20030;-75
2022/08/04 12:26:06;;;;;;;2.50;0.60;;;30.90;37.60;;;;;;4900598;29;20488;-76
2022/08/04 12:28:39;;;;;;;4.75;0.95;;;30.80;38.20;;;;;;4901104;29;20052;-75
2022/08/04 12:31:16;;;;;;;2.92;0.70;;;30.80;38.20;;;;;;4900138;29;20052;-76
2022/08/04 12:33:57;;;;;;;2.35;0.70;;;30.80;38.60;;;;;;4900883;29;20035;-76
2022/08/04 12:37:03;;;;;;;4.82;1.00;;;30.70;38.00;;;;;;4900617;29;20163;-76
2022/08/04 12:39:30;;;;;;;4.05;0.88;;;30.50;38.00;;;;;;4900271;29;20049;-76
2022/08/04 12:42:06;;;;;;;2.08;0.80;;;30.50;38.70;;;;;;4899949;29;20041;-76
2022/08/04 12:44:38;;;;;;;2.15;0.60;;;30.60;38.60;;;;;;4900837;29;20041;-75
2022/08/04 12:47:07;;;;;;;1.98;0.57;;;30.70;38.70;;;;;;4900315;29;20566;-76
2022/08/04 12:49:36;;;;;;;4.07;0.70;;;30.50;38.10;;;;;;4914533;29;20040;-76
2022/08/04 12:52:06;;;;;;;5.80;1.13;;;30.70;38.50;;;;;;4919015;29;20484;-75
2022/08/04 12:54:35;;;;;;;2.28;1.00;;;30.90;37.90;;;;;;4919615;29;20032;-76
2022/08/04 12:57:04;;;;;;;3.17;0.70;;;31.00;37.50;;;;;;4914816;29;20484;-76
2022/08/04 12:59:38;;;;;;;2.03;0.60;;;30.80;37.80;;;;;;4918055;29;20036;-76
2022/08/04 13:02:11;;;;;;;3.22;0.70;;;30.40;37.70;;;;;;4904500;29;20056;-76
2022/08/04 13:04:41;;;;;;;2.72;0.80;;;30.30;38.50;;;;;;4900322;29;20045;-76
2022/08/04 13:07:12;;;;;;;5.75;0.80;;;30.10;37.90;;;;;;4899869;29;20021;-76
2022/08/04 13:09:40;;;;;;;3.90;1.27;;;30.10;38.80;;;;;;4911715;29;20399;-76
2022/08/04 13:12:18;;;;;;;4.28;0.82;;;30.30;38.40;;;;;;4938106;29;20086;-76
2022/08/04 13:14:48;;;;;;;1.55;0.75;;;30.40;37.80;;;;;;4927400;29;20028;-76
2022/08/04 13:17:14;;;;;;;2.90;0.90;;;30.60;37.90;;;;;;4900263;29;20088;-76
2022/08/04 13:19:46;;;;;;;4.90;0.98;;;30.50;38.10;;;;;;4900451;29;20036;-77
2022/08/04 13:22:15;;;;;;;4.85;1.20;;;30.60;38.00;;;;;;4911727;29;20076;-76
2022/08/04 13:24:41;;;;;;;4.38;0.88;;;30.60;37.80;;;;;;4909709;29;20040;-76
2022/08/04 13:27:12;;;;;;;2.80;0.95;;;30.80;37.80;;;;;;4899605;29;20056;-76
2022/08/04 13:29:46;;;;;;;4.20;1.08;;;30.60;37.50;;;;;;4914276;29;20048;-76
2022/08/04 13:32:19;;;;;;;3.40;0.93;;;30.60;38.00;;;;;;4898309;29;20032;-76
2022/08/04 13:34:46;;;;;;;1.60;0.73;;;30.30;38.00;;;;;;4900240;29;20036;-76
2022/08/04 13:37:14;;;;;;;2.45;0.85;;;30.40;38.10;;;;;;4914204;29;20385;-76
2022/08/04 13:39:50;;;;;;;3.88;0.93;;;30.40;37.90;;;;;;4899963;29;20100;-76
2022/08/04 13:42:16;;;;;;;5.55;1.20;;;30.40;38.40;;;;;;4899458;29;20424;-77
2022/08/04 13:44:48;;;;;;;3.35;1.20;;;30.40;38.20;;;;;;4899973;29;20572;-76